createdAt,value
2018-11-07T00:01:12.175Z,10.90
2018-11-07T00:03:39.815Z,11.00
2018-11-07T00:06:07.507Z,10.80
2018-11-07T00:08:35.318Z,10.90
2018-11-07T00:11:02.867Z,10.90
2018-11-07T00:13:30.541Z,10.70
2018-11-07T00:15:58.195Z,11.00
2018-11-07T00:18:25.979Z,10.80
2018-11-07T00:20:53.662Z,10.30
2018-11-07T00:23:21.279Z,10.40
2018-11-07T00:25:48.910Z,10.40
2018-11-07T00:28:16.538Z,10.70
2018-11-07T00:30:44.276Z,10.60
2018-11-07T00:33:11.982Z,10.00
2018-11-07T00:35:39.627Z,10.40
2018-11-07T00:38:07.327Z,10.10
2018-11-07T00:40:34.938Z,10.10
2018-11-07T00:43:02.538Z,10.10
2018-11-07T00:45:30.315Z,9.80
2018-11-07T00:47:57.980Z,9.80
2018-11-07T00:50:25.590Z,9.70
2018-11-07T00:52:53.183Z,9.70
2018-11-07T00:55:20.843Z,9.60
2018-11-07T00:57:48.461Z,9.60
2018-11-07T01:00:17.267Z,9.70
2018-11-07T01:02:45.457Z,10.10
2018-11-07T01:05:13.347Z,10.20
2018-11-07T01:07:42.215Z,10.10
2018-11-07T01:10:10.080Z,10.20
2018-11-07T01:12:37.959Z,10.40
2018-11-07T01:15:06.590Z,10.00
2018-11-07T01:17:34.257Z,9.60
2018-11-07T01:20:01.949Z,9.60
2018-11-07T01:22:30.155Z,9.70
2018-11-07T01:24:57.944Z,9.70
2018-11-07T01:27:25.579Z,9.90
2018-11-07T01:29:53.259Z,10.00
2018-11-07T01:32:20.875Z,9.60
2018-11-07T01:34:48.519Z,9.80
2018-11-07T01:37:16.254Z,9.90
2018-11-07T01:39:43.981Z,9.50
2018-11-07T01:42:11.699Z,9.60
2018-11-07T01:44:39.258Z,9.90
2018-11-07T01:47:06.891Z,9.80
2018-11-07T01:49:34.538Z,9.60
2018-11-07T01:52:02.199Z,9.70
2018-11-07T01:54:29.851Z,9.80
2018-11-07T01:56:57.495Z,9.90
2018-11-07T01:59:25.126Z,10.10
2018-11-07T02:01:52.803Z,10.00
2018-11-07T02:04:20.403Z,9.90
2018-11-07T02:06:48.061Z,10.20
2018-11-07T02:09:15.741Z,10.50
2018-11-07T02:11:43.446Z,10.30
2018-11-07T02:14:11.080Z,10.10
2018-11-07T02:16:38.737Z,10.30
2018-11-07T02:19:06.575Z,10.00
2018-11-07T02:21:34.195Z,10.00
2018-11-07T02:24:01.835Z,9.90
2018-11-07T02:26:29.521Z,10.20
2018-11-07T02:28:57.080Z,9.70
2018-11-07T02:31:24.732Z,9.70
2018-11-07T02:33:52.327Z,10.00
2018-11-07T02:36:19.979Z,9.70
2018-11-07T02:38:47.646Z,9.70
2018-11-07T02:41:15.325Z,9.60
2018-11-07T02:43:42.970Z,9.50
2018-11-07T02:46:10.663Z,9.20
2018-11-07T02:48:38.444Z,9.40
2018-11-07T02:51:06.155Z,9.40
2018-11-07T02:53:33.940Z,9.20
2018-11-07T02:56:01.546Z,9.00
2018-11-07T02:58:29.147Z,8.80
2018-11-07T03:00:56.741Z,8.90
2018-11-07T03:03:24.424Z,8.80
2018-11-07T03:05:52.252Z,8.70
2018-11-07T03:08:20.050Z,8.70
2018-11-07T03:10:47.703Z,8.80
2018-11-07T03:13:15.346Z,8.90
2018-11-07T03:15:42.976Z,8.70
2018-11-07T03:18:10.655Z,8.80
2018-11-07T03:20:38.357Z,8.90
2018-11-07T03:23:06.004Z,8.70
2018-11-07T03:25:33.693Z,8.80
2018-11-07T03:28:01.376Z,8.90
2018-11-07T03:30:28.979Z,8.40
2018-11-07T03:32:56.627Z,8.60
2018-11-07T03:35:27.012Z,8.10
2018-11-07T03:37:55.303Z,8.20
2018-11-07T03:40:23.358Z,8.10
2018-11-07T03:42:50.971Z,8.10
2018-11-07T03:45:23.177Z,8.30
2018-11-07T03:47:50.875Z,8.30
2018-11-07T03:50:18.607Z,8.30
2018-11-07T03:52:46.236Z,8.30
2018-11-07T03:55:13.934Z,8.50
2018-11-07T03:57:41.643Z,8.50
2018-11-07T04:00:09.831Z,8.50
2018-11-07T04:02:37.852Z,8.50
2018-11-07T04:05:07.132Z,8.40
2018-11-07T04:07:35.045Z,8.40
2018-11-07T04:10:02.961Z,8.10
2018-11-07T04:12:30.595Z,8.20
2018-11-07T04:14:58.331Z,8.10
2018-11-07T04:17:25.915Z,7.90
2018-11-07T04:19:53.576Z,8.00
2018-11-07T04:22:21.263Z,8.00
2018-11-07T04:24:48.940Z,7.80
2018-11-07T04:27:16.608Z,8.10
2018-11-07T04:29:44.276Z,7.80
2018-11-07T04:32:11.916Z,7.90
2018-11-07T04:34:44.051Z,8.00
2018-11-07T04:37:11.790Z,7.80
2018-11-07T04:39:39.494Z,7.80
2018-11-07T04:42:07.150Z,7.70
2018-11-07T04:44:34.792Z,7.80
2018-11-07T04:47:02.512Z,7.80
2018-11-07T04:49:30.114Z,7.90
2018-11-07T04:52:06.622Z,7.70
2018-11-07T04:54:34.230Z,7.90
2018-11-07T04:57:01.925Z,7.90
2018-11-07T04:59:29.586Z,7.70
2018-11-07T05:01:57.285Z,7.70
2018-11-07T05:04:24.991Z,7.70
2018-11-07T05:06:53.419Z,8.10
2018-11-07T05:09:21.112Z,8.10
2018-11-07T05:11:48.897Z,7.90
2018-11-07T05:14:16.514Z,7.70
2018-11-07T05:16:44.200Z,7.90
2018-11-07T05:19:12.147Z,7.80
2018-11-07T05:21:39.999Z,7.80
2018-11-07T05:24:07.669Z,7.80
2018-11-07T05:26:35.307Z,7.60
2018-11-07T05:29:03.030Z,7.70
2018-11-07T05:31:30.667Z,7.60
2018-11-07T05:33:58.340Z,7.70
2018-11-07T05:36:26.046Z,7.80
2018-11-07T05:38:53.731Z,7.70
2018-11-07T05:41:21.441Z,7.70
2018-11-07T05:43:49.067Z,7.80
2018-11-07T05:46:16.685Z,8.20
2018-11-07T05:48:44.375Z,7.70
2018-11-07T05:51:12.086Z,7.80
2018-11-07T05:53:39.758Z,7.70
2018-11-07T05:56:07.418Z,8.00
2018-11-07T05:58:36.000Z,7.70
2018-11-07T06:01:03.882Z,7.90
2018-11-07T06:03:31.528Z,7.90
2018-11-07T06:05:59.202Z,7.90
2018-11-07T06:08:26.816Z,7.80
2018-11-07T06:10:54.523Z,7.70
2018-11-07T06:13:22.139Z,8.10
2018-11-07T06:15:49.846Z,8.00
2018-11-07T06:18:17.527Z,8.00
2018-11-07T06:20:45.306Z,8.00
2018-11-07T06:23:12.990Z,8.00
2018-11-07T06:25:40.716Z,8.00
2018-11-07T06:28:08.459Z,7.60
2018-11-07T06:30:36.168Z,8.10
2018-11-07T06:33:04.058Z,7.80
2018-11-07T06:35:31.672Z,7.90
2018-11-07T06:37:59.239Z,7.80
2018-11-07T06:40:26.824Z,7.70
2018-11-07T06:42:54.514Z,7.60
2018-11-07T06:45:22.210Z,7.70
2018-11-07T06:47:49.814Z,7.70
2018-11-07T06:50:17.526Z,7.60
2018-11-07T06:52:45.153Z,8.00
2018-11-07T06:55:12.872Z,7.70
2018-11-07T06:57:40.521Z,7.70
2018-11-07T07:00:13.713Z,7.70
2018-11-07T07:02:41.957Z,8.20
2018-11-07T07:05:09.631Z,8.20
2018-11-07T07:07:37.647Z,7.90
2018-11-07T07:10:08.396Z,8.40
2018-11-07T07:12:36.059Z,8.40
2018-11-07T07:15:04.075Z,8.20
2018-11-07T07:17:31.792Z,8.30
2018-11-07T07:19:59.442Z,8.40
2018-11-07T07:22:27.042Z,8.50
2018-11-07T07:24:54.723Z,8.50
2018-11-07T07:27:22.377Z,8.60
2018-11-07T07:29:50.044Z,8.80
2018-11-07T07:32:17.689Z,9.10
2018-11-07T07:34:45.313Z,9.20
2018-11-07T07:37:13.015Z,9.80
2018-11-07T07:39:40.651Z,10.90
2018-11-07T07:42:08.380Z,12.90
2018-11-07T07:44:36.011Z,14.70
2018-11-07T07:47:03.719Z,15.60
2018-11-07T07:49:31.433Z,16.40
2018-11-07T07:51:59.016Z,17.30
2018-11-07T07:54:26.603Z,17.70
2018-11-07T07:56:54.354Z,18.50
2018-11-07T07:59:21.909Z,19.40
2018-11-07T08:01:49.522Z,20.00
2018-11-07T08:04:17.207Z,20.30
2018-11-07T08:06:44.868Z,20.60
2018-11-07T08:09:13.388Z,21.10
2018-11-07T08:11:41.317Z,21.40
2018-11-07T08:14:09.604Z,21.80
2018-11-07T08:16:37.476Z,22.10
2018-11-07T08:19:05.531Z,21.90
2018-11-07T08:21:33.167Z,21.80
2018-11-07T08:24:00.872Z,22.00
2018-11-07T08:26:28.556Z,22.10
2018-11-07T08:28:57.177Z,22.50
2018-11-07T08:31:24.857Z,22.70
2018-11-07T08:33:52.512Z,23.00
2018-11-07T08:36:20.199Z,23.00
2018-11-07T08:38:47.779Z,23.30
2018-11-07T08:41:15.462Z,23.10
2018-11-07T08:43:43.143Z,23.30
2018-11-07T08:46:10.876Z,23.60
2018-11-07T08:48:38.471Z,23.40
2018-11-07T08:51:06.072Z,23.60
2018-11-07T08:53:33.702Z,24.30
2018-11-07T08:56:01.451Z,24.80
2018-11-07T08:58:29.069Z,24.70
2018-11-07T09:00:56.704Z,24.90
2018-11-07T09:03:24.323Z,25.00
2018-11-07T09:05:52.060Z,25.00
2018-11-07T09:08:19.698Z,25.10
2018-11-07T09:10:47.379Z,24.90
2018-11-07T09:13:15.028Z,25.00
2018-11-07T09:15:42.635Z,24.90
2018-11-07T09:18:10.242Z,25.10
2018-11-07T09:20:37.806Z,25.20
2018-11-07T09:23:05.563Z,25.10
2018-11-07T09:25:33.228Z,25.00
2018-11-07T09:28:01.615Z,25.10
2018-11-07T09:30:29.239Z,24.30
2018-11-07T09:32:56.947Z,23.80
2018-11-07T09:35:24.582Z,24.20
2018-11-07T09:37:52.259Z,24.50
2018-11-07T09:40:20.763Z,24.50
2018-11-07T09:42:48.839Z,24.90
2018-11-07T09:45:17.710Z,25.10
2018-11-07T09:47:45.836Z,24.90
2018-11-07T09:50:14.239Z,25.20
2018-11-07T09:52:42.182Z,25.50
2018-11-07T09:55:11.094Z,25.50
2018-11-07T09:57:39.031Z,26.10
2018-11-07T10:00:19.578Z,26.00
2018-11-07T10:02:47.511Z,25.50
2018-11-07T10:05:16.016Z,24.00
2018-11-07T10:07:43.736Z,22.10
2018-11-07T10:10:14.315Z,20.40
2018-11-07T10:12:42.167Z,19.10
2018-11-07T10:15:10.257Z,18.40
2018-11-07T10:17:38.061Z,17.90
2018-11-07T10:20:13.118Z,18.00
2018-11-07T10:22:41.415Z,17.60
2018-11-07T10:25:09.796Z,17.30
2018-11-07T10:27:38.354Z,17.20
2018-11-07T10:30:08.007Z,17.20
2018-11-07T10:32:35.155Z,17.10
2018-11-07T10:35:02.873Z,17.10
2018-11-07T10:37:32.609Z,17.30
2018-11-07T10:39:58.316Z,17.30
2018-11-07T10:42:26.020Z,17.50
2018-11-07T10:44:53.667Z,17.40
2018-11-07T10:47:21.323Z,17.30
2018-11-07T10:49:49.247Z,17.70
2018-11-07T10:52:16.976Z,17.80
2018-11-07T10:54:44.623Z,17.80
2018-11-07T10:57:12.260Z,17.80
2018-11-07T10:59:40.007Z,18.20
2018-11-07T11:02:13.076Z,18.50
2018-11-07T11:04:40.736Z,18.30
2018-11-07T11:07:08.452Z,19.50
2018-11-07T11:09:36.124Z,20.50
2018-11-07T11:12:04.047Z,22.30
2018-11-07T11:14:31.782Z,23.50
2018-11-07T11:16:59.885Z,24.40
2018-11-07T11:19:27.691Z,24.50
2018-11-07T11:21:55.384Z,24.80
2018-11-07T11:24:23.015Z,24.10
2018-11-07T11:26:50.703Z,22.70
2018-11-07T11:29:19.387Z,22.10
2018-11-07T11:31:48.291Z,21.40
2018-11-07T11:34:16.169Z,20.60
2018-11-07T11:36:43.775Z,20.70
2018-11-07T11:39:12.221Z,21.60
2018-11-07T11:41:40.525Z,22.60
2018-11-07T11:44:08.203Z,22.80
2018-11-07T11:46:35.850Z,23.70
2018-11-07T11:49:03.896Z,23.20
2018-11-07T11:51:31.768Z,22.30
2018-11-07T11:54:00.363Z,21.10
2018-11-07T11:56:27.992Z,21.50
2018-11-07T11:58:55.837Z,22.60
2018-11-07T12:01:23.382Z,23.30
2018-11-07T12:03:51.036Z,23.40
2018-11-07T12:06:18.632Z,23.40
2018-11-07T12:08:46.336Z,23.20
2018-11-07T12:11:13.936Z,23.40
2018-11-07T12:13:41.615Z,23.50
2018-11-07T12:16:09.304Z,23.80
2018-11-07T12:18:37.044Z,23.60
2018-11-07T12:21:04.737Z,23.70
2018-11-07T12:23:32.416Z,23.80
2018-11-07T12:26:00.039Z,23.80
2018-11-07T12:28:27.687Z,23.50
2018-11-07T12:30:55.431Z,23.40
2018-11-07T12:33:23.092Z,23.90
2018-11-07T12:35:50.783Z,23.90
2018-11-07T12:38:18.515Z,23.50
2018-11-07T12:40:46.177Z,23.70
2018-11-07T12:43:13.902Z,23.70
2018-11-07T12:45:41.602Z,23.50
2018-11-07T12:48:09.253Z,23.60
2018-11-07T12:50:37.032Z,23.80
2018-11-07T12:53:04.921Z,24.00
2018-11-07T12:55:32.620Z,23.70
2018-11-07T12:58:00.434Z,23.20
2018-11-07T13:00:28.111Z,22.80
2018-11-07T13:02:55.864Z,22.80
2018-11-07T13:05:24.488Z,22.40
2018-11-07T13:07:53.223Z,22.80
2018-11-07T13:10:22.399Z,23.00
2018-11-07T13:12:50.639Z,22.60
2018-11-07T13:15:18.392Z,22.60
2018-11-07T13:17:46.853Z,22.70
2018-11-07T13:20:16.459Z,22.80
2018-11-07T13:22:45.363Z,23.10
2018-11-07T13:25:13.494Z,23.10
2018-11-07T13:27:41.188Z,22.90
2018-11-07T13:30:11.227Z,22.50
2018-11-07T13:32:39.130Z,22.20
2018-11-07T13:35:07.705Z,22.10
2018-11-07T13:37:35.449Z,22.20
2018-11-07T13:40:03.364Z,22.40
2018-11-07T13:42:31.019Z,21.60
2018-11-07T13:44:58.620Z,21.20
2018-11-07T13:47:26.247Z,21.00
2018-11-07T13:49:53.887Z,21.10
2018-11-07T13:52:21.555Z,21.20
2018-11-07T13:54:49.127Z,20.80
2018-11-07T13:57:16.793Z,20.90
2018-11-07T13:59:44.451Z,20.50
2018-11-07T14:02:12.135Z,19.90
2018-11-07T14:04:39.995Z,19.60
2018-11-07T14:07:07.619Z,19.40
2018-11-07T14:09:35.310Z,18.80
2018-11-07T14:12:03.015Z,18.50
2018-11-07T14:14:30.834Z,18.60
2018-11-07T14:16:58.536Z,18.00
2018-11-07T14:19:26.183Z,18.00
2018-11-07T14:21:53.828Z,18.30
2018-11-07T14:24:21.487Z,18.00
2018-11-07T14:26:49.165Z,18.00
2018-11-07T14:29:16.887Z,17.90
2018-11-07T14:31:44.977Z,17.80
2018-11-07T14:34:13.423Z,17.70
2018-11-07T14:36:41.123Z,17.80
2018-11-07T14:39:09.436Z,17.90
2018-11-07T14:41:37.003Z,17.40
2018-11-07T14:44:04.837Z,17.50
2018-11-07T14:46:32.491Z,17.30
2018-11-07T14:49:00.293Z,17.20
2018-11-07T14:51:27.983Z,17.40
2018-11-07T14:53:55.629Z,17.40
2018-11-07T14:56:23.219Z,17.10
2018-11-07T14:58:50.996Z,17.20
2018-11-07T15:01:18.702Z,17.20
2018-11-07T15:03:46.388Z,16.80
2018-11-07T15:06:14.142Z,17.10
2018-11-07T15:08:41.732Z,16.60
2018-11-07T15:11:09.658Z,16.50
2018-11-07T15:13:37.218Z,16.70
2018-11-07T15:16:04.946Z,16.50
2018-11-07T15:18:33.008Z,16.40
2018-11-07T15:21:00.798Z,16.40
2018-11-07T15:23:28.446Z,16.10
2018-11-07T15:25:56.210Z,16.00
2018-11-07T15:28:23.918Z,16.10
2018-11-07T15:30:51.639Z,16.00
2018-11-07T15:33:19.851Z,16.10
2018-11-07T15:35:47.466Z,15.70
2018-11-07T15:38:15.224Z,16.00
2018-11-07T15:40:42.833Z,15.60
2018-11-07T15:43:10.564Z,15.50
2018-11-07T15:45:38.204Z,15.60
2018-11-07T15:48:05.858Z,15.40
2018-11-07T15:50:38.915Z,15.20
2018-11-07T15:53:06.559Z,15.00
2018-11-07T15:55:35.151Z,15.00
2018-11-07T15:58:02.809Z,14.90
2018-11-07T16:00:30.487Z,15.20
2018-11-07T16:02:58.192Z,14.80
2018-11-07T16:05:25.869Z,14.80
2018-11-07T16:07:53.513Z,14.80
2018-11-07T16:10:21.145Z,14.80
2018-11-07T16:12:48.794Z,14.90
2018-11-07T16:15:17.415Z,14.50
2018-11-07T16:17:45.190Z,14.70
2018-11-07T16:20:14.275Z,14.20
2018-11-07T16:22:43.084Z,14.40
2018-11-07T16:25:10.680Z,14.30
2018-11-07T16:27:38.827Z,14.20
2018-11-07T16:30:08.036Z,14.10
2018-11-07T16:32:35.723Z,14.10
2018-11-07T16:35:04.457Z,13.90
2018-11-07T16:37:32.111Z,14.30
2018-11-07T16:39:59.902Z,14.20
2018-11-07T16:42:27.614Z,14.10
2018-11-07T16:44:55.294Z,13.90
2018-11-07T16:47:24.158Z,14.00
2018-11-07T16:49:51.831Z,14.00
2018-11-07T16:52:19.501Z,14.10
2018-11-07T16:54:47.202Z,14.00
2018-11-07T16:57:14.919Z,14.10
2018-11-07T16:59:42.563Z,14.00
2018-11-07T17:02:10.276Z,14.50
2018-11-07T17:04:38.007Z,14.50
2018-11-07T17:07:05.693Z,14.20
2018-11-07T17:09:33.301Z,14.10
2018-11-07T17:12:00.966Z,14.10
2018-11-07T17:14:28.628Z,14.30
2018-11-07T17:16:57.231Z,14.30
2018-11-07T17:19:24.889Z,14.40
2018-11-07T17:21:52.499Z,14.10
2018-11-07T17:24:20.291Z,14.10
2018-11-07T17:26:48.111Z,14.40
2018-11-07T17:29:15.758Z,14.10
2018-11-07T17:31:43.513Z,14.10
2018-11-07T17:34:11.187Z,14.10
2018-11-07T17:36:38.900Z,14.10
2018-11-07T17:39:07.636Z,14.30
2018-11-07T17:41:35.326Z,14.30
2018-11-07T17:44:03.023Z,14.10
2018-11-07T17:46:30.738Z,14.10
2018-11-07T17:48:58.374Z,13.90
2018-11-07T17:51:26.187Z,14.10
2018-11-07T17:53:53.859Z,14.20
2018-11-07T17:56:21.769Z,14.30
2018-11-07T17:58:49.516Z,14.20
2018-11-07T18:01:17.395Z,14.10
2018-11-07T18:03:45.133Z,14.20
2018-11-07T18:06:12.758Z,14.10
2018-11-07T18:08:40.343Z,14.10
2018-11-07T18:11:08.127Z,14.40
2018-11-07T18:13:35.835Z,14.10
2018-11-07T18:16:03.575Z,14.10
2018-11-07T18:18:31.229Z,14.20
2018-11-07T18:20:58.883Z,14.10
2018-11-07T18:23:26.563Z,13.90
2018-11-07T18:25:54.215Z,14.00
2018-11-07T18:28:21.911Z,14.20
2018-11-07T18:30:49.819Z,14.20
2018-11-07T18:33:18.174Z,13.90
2018-11-07T18:35:45.915Z,14.00
2018-11-07T18:38:13.596Z,14.00
2018-11-07T18:40:42.892Z,13.80
2018-11-07T18:43:10.715Z,14.20
2018-11-07T18:45:38.331Z,14.20
2018-11-07T18:48:06.008Z,14.10
2018-11-07T18:50:33.749Z,13.80
2018-11-07T18:53:01.398Z,13.80
2018-11-07T18:55:29.095Z,14.00
2018-11-07T18:57:56.759Z,13.70
2018-11-07T19:00:24.459Z,13.80
2018-11-07T19:02:52.215Z,14.00
2018-11-07T19:05:19.915Z,13.90
2018-11-07T19:07:47.595Z,13.80
2018-11-07T19:10:16.511Z,13.60
2018-11-07T19:12:44.951Z,13.80
2018-11-07T19:15:13.488Z,13.90
2018-11-07T19:17:42.461Z,13.60
2018-11-07T19:20:11.266Z,13.70
2018-11-07T19:22:38.970Z,14.00
2018-11-07T19:25:08.832Z,13.80
2018-11-07T19:27:37.145Z,13.90
2018-11-07T19:30:07.742Z,13.80
2018-11-07T19:32:35.620Z,13.60
2018-11-07T19:35:03.418Z,14.00
2018-11-07T19:37:31.087Z,13.80
2018-11-07T19:39:59.472Z,13.70
2018-11-07T19:42:27.223Z,13.80
2018-11-07T19:44:54.790Z,13.60
2018-11-07T19:47:22.487Z,13.70
2018-11-07T19:49:50.143Z,13.30
2018-11-07T19:52:17.878Z,13.50
2018-11-07T19:54:45.510Z,13.50
2018-11-07T19:57:17.527Z,13.40
2018-11-07T19:59:45.243Z,13.50
2018-11-07T20:02:12.983Z,13.50
2018-11-07T20:04:40.679Z,13.40
2018-11-07T20:07:08.355Z,13.30
2018-11-07T20:09:36.059Z,13.10
2018-11-07T20:12:03.800Z,13.10
2018-11-07T20:14:31.480Z,13.00
2018-11-07T20:16:59.283Z,13.40
2018-11-07T20:19:26.987Z,13.30
2018-11-07T20:21:54.664Z,13.20
2018-11-07T20:24:22.376Z,13.50
2018-11-07T20:26:50.053Z,13.20
2018-11-07T20:29:17.781Z,13.20
2018-11-07T20:31:45.461Z,13.30
2018-11-07T20:34:13.188Z,13.10
2018-11-07T20:36:40.844Z,13.10
2018-11-07T20:39:09.895Z,13.20
2018-11-07T20:41:37.723Z,13.60
2018-11-07T20:44:05.445Z,13.40
2018-11-07T20:46:33.172Z,13.20
2018-11-07T20:49:00.878Z,13.20
2018-11-07T20:51:28.523Z,13.10
2018-11-07T20:53:56.504Z,13.20
2018-11-07T20:56:24.226Z,13.10
2018-11-07T20:58:52.165Z,13.20
2018-11-07T21:01:19.839Z,13.40
2018-11-07T21:03:49.692Z,13.60
2018-11-07T21:06:18.416Z,13.20
2018-11-07T21:08:46.564Z,13.50
2018-11-07T21:11:14.356Z,13.50
2018-11-07T21:13:43.079Z,13.50
2018-11-07T21:16:11.015Z,13.60
2018-11-07T21:18:39.191Z,13.50
2018-11-07T21:21:07.205Z,13.40
2018-11-07T21:23:35.914Z,13.30
2018-11-07T21:26:04.161Z,13.10
2018-11-07T21:28:31.990Z,13.10
2018-11-07T21:30:59.900Z,13.20
2018-11-07T21:33:27.751Z,13.20
2018-11-07T21:35:55.449Z,12.90
2018-11-07T21:38:24.315Z,13.20
2018-11-07T21:40:52.106Z,12.90
2018-11-07T21:43:19.786Z,12.80
2018-11-07T21:45:48.089Z,12.80
2018-11-07T21:48:15.873Z,12.80
2018-11-07T21:50:43.977Z,13.10
2018-11-07T21:53:11.596Z,12.90
2018-11-07T21:55:39.234Z,13.00
2018-11-07T21:58:06.840Z,13.10
2018-11-07T22:00:35.526Z,12.80
2018-11-07T22:03:03.963Z,12.90
2018-11-07T22:05:32.277Z,12.90
2018-11-07T22:08:01.060Z,12.70
2018-11-07T22:10:29.526Z,12.50
2018-11-07T22:12:57.923Z,12.50
2018-11-07T22:15:25.606Z,12.70
2018-11-07T22:17:53.190Z,12.80
2018-11-07T22:20:21.520Z,13.00
2018-11-07T22:22:49.226Z,13.00
2018-11-07T22:25:18.131Z,12.70
2018-11-07T22:27:46.493Z,12.90
2018-11-07T22:30:15.419Z,12.90
2018-11-07T22:32:43.460Z,12.90
2018-11-07T22:35:12.495Z,12.70
2018-11-07T22:37:40.259Z,12.70
2018-11-07T22:40:09.655Z,12.90
2018-11-07T22:42:37.540Z,12.50
2018-11-07T22:45:05.666Z,12.60
2018-11-07T22:47:33.275Z,12.80
2018-11-07T22:50:00.927Z,12.40
2018-11-07T22:52:28.666Z,12.80
2018-11-07T22:54:56.367Z,12.60
2018-11-07T22:57:23.911Z,13.00
2018-11-07T22:59:51.631Z,12.60
2018-11-07T23:02:19.266Z,12.70
2018-11-07T23:04:48.856Z,12.60
2018-11-07T23:07:16.491Z,12.50
2018-11-07T23:09:44.071Z,12.50
2018-11-07T23:12:11.927Z,12.60
2018-11-07T23:14:39.610Z,12.60
2018-11-07T23:17:09.460Z,12.70
2018-11-07T23:19:37.131Z,12.70
2018-11-07T23:22:04.978Z,12.60
2018-11-07T23:24:32.615Z,12.70
2018-11-07T23:27:00.286Z,12.90
2018-11-07T23:29:27.907Z,12.70
2018-11-07T23:31:55.611Z,12.80
2018-11-07T23:34:23.415Z,12.70
2018-11-07T23:36:51.084Z,12.80
2018-11-07T23:39:18.679Z,12.80
2018-11-07T23:41:46.327Z,12.80
2018-11-07T23:44:13.935Z,12.80
2018-11-07T23:46:41.551Z,12.70
2018-11-07T23:49:09.211Z,12.90
2018-11-07T23:51:41.383Z,12.90
2018-11-07T23:54:09.142Z,12.60
2018-11-07T23:56:36.814Z,12.70
2018-11-07T23:59:04.523Z,12.70
